createdAt,value
2019-04-21T00:00:37.356Z,32.75
2019-04-21T00:03:16.448Z,32.80
2019-04-21T00:05:57.176Z,32.70
2019-04-21T00:08:44.162Z,33.13
2019-04-21T00:11:05.891Z,33.16
2019-04-21T00:13:31.308Z,32.85
2019-04-21T00:15:48.814Z,33.42
2019-04-21T00:18:40.748Z,33.59
2019-04-21T00:21:11.724Z,33.65
2019-04-21T00:23:54.087Z,33.74
2019-04-21T00:26:26.511Z,33.58
2019-04-21T00:29:05.058Z,33.58
2019-04-21T00:31:24.550Z,34.00
2019-04-21T00:33:41.624Z,34.24
2019-04-21T00:36:15.937Z,34.55
2019-04-21T00:39:18.631Z,35.66
2019-04-21T00:41:29.456Z,36.28
2019-04-21T00:43:59.601Z,36.16
2019-04-21T00:46:33.176Z,36.37
2019-04-21T00:49:02.011Z,37.01
2019-04-21T00:51:46.807Z,37.65
2019-04-21T00:54:18.471Z,37.95
2019-04-21T00:56:46.706Z,38.00
2019-04-21T00:59:14.955Z,38.50
2019-04-21T01:01:46.075Z,38.78
2019-04-21T01:04:15.350Z,38.98
2019-04-21T01:06:48.351Z,39.36
2019-04-21T01:09:13.837Z,40.11
2019-04-21T01:11:49.289Z,40.66
2019-04-21T01:14:29.797Z,41.08
2019-04-21T01:16:51.693Z,40.33
2019-04-21T01:19:16.819Z,40.35
2019-04-21T01:21:31.816Z,40.23
2019-04-21T01:24:07.832Z,40.86
2019-04-21T01:26:43.776Z,40.87
2019-04-21T01:29:19.284Z,41.89
2019-04-21T01:32:03.729Z,41.48
2019-04-21T01:34:28.828Z,42.79
2019-04-21T01:36:54.241Z,43.32
2019-04-21T01:39:39.344Z,43.24
2019-04-21T01:42:04.967Z,43.20
2019-04-21T01:44:38.990Z,43.71
2019-04-21T01:46:58.772Z,43.60
2019-04-21T01:49:26.672Z,45.46
2019-04-21T01:52:17.843Z,44.40
2019-04-21T01:55:00.350Z,44.67
2019-04-21T01:57:34.505Z,45.05
2019-04-21T02:00:02.307Z,46.45
2019-04-21T02:02:47.705Z,45.55
2019-04-21T02:05:17.480Z,45.62
2019-04-21T02:07:41.820Z,46.94
2019-04-21T02:10:17.670Z,46.84
2019-04-21T02:12:48.400Z,47.17
2019-04-21T02:15:26.861Z,46.92
2019-04-21T02:17:51.397Z,47.23
2019-04-21T02:20:12.035Z,47.90
2019-04-21T02:23:08.448Z,48.58
2019-04-21T02:25:23.147Z,48.32
2019-04-21T02:28:00.805Z,47.75
2019-04-21T02:30:36.209Z,48.20
2019-04-21T02:33:16.944Z,48.20
2019-04-21T02:35:39.489Z,47.77
2019-04-21T02:40:44.976Z,47.66
2019-04-21T02:43:11.428Z,47.54
2019-04-21T02:45:39.355Z,49.16
2019-04-21T02:53:21.142Z,50.19
2019-04-21T02:55:45.718Z,50.26
2019-04-21T03:00:59.613Z,51.76
2019-04-21T03:03:41.741Z,51.64
2019-04-21T03:06:08.758Z,52.27
2019-04-21T03:08:44.328Z,52.31
2019-04-21T03:13:41.763Z,51.22
2019-04-21T03:16:18.447Z,52.30
2019-04-21T03:18:54.243Z,51.84
2019-04-21T03:23:56.351Z,50.84
2019-04-21T03:26:27.270Z,49.29
2019-04-21T03:34:31.767Z,48.32
2019-04-21T03:36:43.913Z,48.96
2019-04-21T03:38:51.049Z,47.11
2019-04-21T03:41:26.483Z,48.23
2019-04-21T03:43:52.622Z,48.58
2019-04-21T03:46:41.276Z,50.25
2019-04-21T03:51:29.420Z,50.14
2019-04-21T03:53:57.638Z,51.07
2019-04-21T04:01:57.794Z,50.72
2019-04-21T04:04:27.953Z,51.04
2019-04-21T04:07:24.224Z,51.03
2019-04-21T04:09:54.035Z,52.31
2019-04-21T04:12:32.988Z,51.78
2019-04-21T04:14:55.334Z,50.61
2019-04-21T04:17:20.363Z,51.78
2019-04-21T04:29:59.280Z,52.72
2019-04-21T04:32:30.691Z,53.26
2019-04-21T04:35:05.753Z,54.13
2019-04-21T04:37:32.808Z,53.91
2019-04-21T04:40:14.274Z,53.77
2019-04-21T04:45:28.366Z,53.73
2019-04-21T04:47:51.255Z,54.61
2019-04-21T04:50:22.577Z,53.32
2019-04-21T04:52:45.818Z,53.88
2019-04-21T04:55:27.073Z,53.57
2019-04-21T04:58:01.030Z,52.41
2019-04-21T05:00:28.751Z,52.37
2019-04-21T05:03:01.186Z,52.47
2019-04-21T05:05:40.343Z,52.93
2019-04-21T05:07:57.742Z,52.95
2019-04-21T05:12:53.214Z,53.02
2019-04-21T05:15:25.511Z,53.75
2019-04-21T05:18:02.402Z,54.58
2019-04-21T05:22:54.486Z,53.92
2019-04-21T05:25:18.560Z,54.96
2019-04-21T05:27:55.368Z,55.13
2019-04-21T05:30:33.846Z,55.93
2019-04-21T05:33:10.769Z,56.37
2019-04-21T05:35:45.203Z,55.95
2019-04-21T05:38:17.157Z,54.68
2019-04-21T05:40:40.135Z,54.54
2019-04-21T05:43:21.393Z,54.84
2019-04-21T05:45:53.535Z,54.75
2019-04-21T05:50:53.762Z,55.22
2019-04-21T05:53:29.538Z,55.09
2019-04-21T05:55:58.674Z,55.04
2019-04-21T05:58:27.279Z,54.62
2019-04-21T06:01:33.423Z,54.24
2019-04-21T06:03:49.240Z,54.46
2019-04-21T06:06:22.033Z,53.79
2019-04-21T06:08:49.718Z,52.44
2019-04-21T06:11:28.813Z,51.33
2019-04-21T06:13:55.034Z,51.19
2019-04-21T06:16:43.005Z,51.50
2019-04-21T06:19:05.214Z,51.98
2019-04-21T06:21:21.732Z,51.15
2019-04-21T06:24:13.095Z,51.01
2019-04-21T06:26:52.318Z,51.27
2019-04-21T06:28:56.894Z,51.24
2019-04-21T06:31:57.920Z,51.02
2019-04-21T06:33:58.541Z,50.71
2019-04-21T06:36:47.435Z,50.58
2019-04-21T06:39:12.118Z,49.64
2019-04-21T06:46:40.774Z,49.44
2019-04-21T06:49:19.467Z,48.87
2019-04-21T06:51:37.161Z,47.89
2019-04-21T06:54:17.467Z,48.04
2019-04-21T06:57:21.858Z,47.88
2019-04-21T06:59:09.359Z,48.17
2019-04-21T07:09:21.000Z,47.21
2019-04-21T07:11:44.553Z,46.58
2019-04-21T07:16:50.862Z,46.57
2019-04-21T07:19:30.790Z,46.77
2019-04-21T07:21:54.233Z,46.35
2019-04-21T07:24:30.418Z,46.57
2019-04-21T07:26:55.625Z,45.37
2019-04-21T07:29:32.212Z,44.00
2019-04-21T07:31:58.686Z,44.60
2019-04-21T07:39:29.729Z,44.51
2019-04-21T07:41:53.990Z,43.19
2019-04-21T07:44:28.893Z,42.78
2019-04-21T07:46:57.306Z,42.61
2019-04-21T07:49:39.941Z,44.16
2019-04-21T07:52:33.536Z,42.17
2019-04-21T07:55:05.551Z,42.75
2019-04-21T07:57:28.112Z,41.69
2019-04-21T08:00:08.391Z,41.66
2019-04-21T08:02:29.170Z,42.23
2019-04-21T08:05:09.971Z,40.84
2019-04-21T08:07:41.519Z,41.03
2019-04-21T08:09:57.223Z,40.09
2019-04-21T08:12:24.633Z,41.88
2019-04-21T08:15:09.660Z,40.51
2019-04-21T08:17:35.956Z,40.49
2019-04-21T08:20:07.812Z,40.93
2019-04-21T08:22:43.207Z,39.67
2019-04-21T08:25:08.739Z,39.97
2019-04-21T08:27:55.570Z,40.11
2019-04-21T08:30:14.299Z,39.88
2019-04-21T08:32:57.294Z,39.02
2019-04-21T08:35:33.662Z,39.06
2019-04-21T08:37:44.980Z,38.35
2019-04-21T08:42:44.751Z,38.36
2019-04-21T08:45:21.992Z,38.61
2019-04-21T08:47:52.118Z,37.60
2019-04-21T08:50:20.823Z,39.21
2019-04-21T08:53:08.022Z,39.83
2019-04-21T08:55:32.102Z,37.09
2019-04-21T08:58:15.236Z,37.53
2019-04-21T09:00:56.362Z,36.33
2019-04-21T09:03:43.388Z,36.59
2019-04-21T09:06:18.937Z,35.56
2019-04-21T09:08:46.110Z,35.28
2019-04-21T09:11:14.964Z,36.17
2019-04-21T09:13:40.963Z,35.75
2019-04-21T09:16:16.944Z,36.14
2019-04-21T09:18:40.445Z,35.60
2019-04-21T09:21:21.868Z,35.21
2019-04-21T09:23:45.305Z,34.72
2019-04-21T09:26:20.087Z,34.38
2019-04-21T09:28:45.214Z,34.20
2019-04-21T09:31:06.371Z,34.67
2019-04-21T09:33:40.721Z,34.77
2019-04-21T09:36:09.701Z,34.16
2019-04-21T09:38:41.546Z,35.37
2019-04-21T09:41:14.297Z,34.80
2019-04-21T09:43:45.307Z,35.29
2019-04-21T09:46:09.825Z,33.91
2019-04-21T09:48:49.861Z,33.47
2019-04-21T09:51:11.066Z,32.97
2019-04-21T09:53:42.227Z,33.31
2019-04-21T09:56:16.700Z,32.40
2019-04-21T09:58:49.462Z,32.16
2019-04-21T10:01:22.817Z,32.80
2019-04-21T10:03:48.649Z,32.01
2019-04-21T10:06:18.750Z,32.43
2019-04-21T10:08:49.506Z,32.07
2019-04-21T10:11:20.768Z,32.72
2019-04-21T10:13:50.713Z,32.68
2019-04-21T10:16:24.627Z,31.80
2019-04-21T10:18:54.789Z,31.43
2019-04-21T10:21:25.829Z,30.54
2019-04-21T10:23:55.166Z,30.67
2019-04-21T10:26:24.503Z,30.67
2019-04-21T10:28:58.585Z,29.06
2019-04-21T10:31:24.990Z,30.70
2019-04-21T10:33:54.557Z,30.46
2019-04-21T10:36:26.858Z,30.52
2019-04-21T10:38:55.838Z,30.47
2019-04-21T10:41:26.083Z,31.01
2019-04-21T10:43:55.589Z,31.35
2019-04-21T10:46:24.918Z,30.41
2019-04-21T10:48:55.010Z,29.41
2019-04-21T10:51:25.447Z,29.58
2019-04-21T10:53:55.997Z,29.58
2019-04-21T10:56:31.312Z,28.31
2019-04-21T10:58:56.424Z,28.04
2019-04-21T11:01:27.377Z,29.24
2019-04-21T11:04:21.901Z,28.60
2019-04-21T11:06:48.210Z,28.57
2019-04-21T11:09:17.976Z,27.94
2019-04-21T11:11:49.893Z,28.06
2019-04-21T11:14:19.328Z,27.23
2019-04-21T11:16:51.532Z,27.29
2019-04-21T11:19:22.035Z,27.22
2019-04-21T11:21:52.591Z,26.93
2019-04-21T11:24:22.999Z,25.38
2019-04-21T11:26:53.755Z,25.94
2019-04-21T11:29:23.402Z,25.77
2019-04-21T11:31:52.781Z,25.64
2019-04-21T11:34:23.076Z,25.61
2019-04-21T11:36:52.501Z,25.33
2019-04-21T11:39:37.581Z,23.90
2019-04-21T11:42:01.642Z,23.53
2019-04-21T11:44:31.142Z,23.66
2019-04-21T11:47:00.629Z,22.82
2019-04-21T11:49:32.006Z,22.69
2019-04-21T11:52:00.942Z,21.92
2019-04-21T11:54:30.983Z,22.25
2019-04-21T11:57:03.390Z,22.49
2019-04-21T11:59:31.477Z,21.70
2019-04-21T12:02:01.545Z,21.20
2019-04-21T12:04:31.684Z,21.75
2019-04-21T12:07:01.879Z,21.02
2019-04-21T12:09:31.252Z,19.51
2019-04-21T12:12:01.239Z,20.41
2019-04-21T12:14:32.124Z,21.12
2019-04-21T12:17:02.671Z,21.69
2019-04-21T12:19:33.076Z,20.29
2019-04-21T12:22:10.992Z,19.70
2019-04-21T12:24:36.834Z,18.98
2019-04-21T12:27:06.127Z,18.62
2019-04-21T12:29:35.637Z,18.13
2019-04-21T12:32:09.772Z,17.51
2019-04-21T12:34:39.745Z,17.51
2019-04-21T12:37:09.035Z,16.92
2019-04-21T12:39:38.763Z,15.80
2019-04-21T12:42:09.142Z,15.72
2019-04-21T12:44:39.174Z,17.57
2019-04-21T12:47:09.988Z,15.60
2019-04-21T12:49:39.837Z,15.71
2019-04-21T12:52:11.434Z,15.03
2019-04-21T12:54:41.797Z,16.40
2019-04-21T12:57:11.790Z,15.40
2019-04-21T12:59:42.528Z,14.74
2019-04-21T13:02:11.933Z,13.44
2019-04-21T13:04:42.011Z,13.33
2019-04-21T13:07:11.465Z,12.91
2019-04-21T13:09:42.080Z,12.22
2019-04-21T13:12:13.019Z,10.94
2019-04-21T13:14:42.430Z,10.43
2019-04-21T13:17:13.046Z,10.47
2019-04-21T13:19:43.231Z,11.25
2019-04-21T13:22:12.611Z,11.51
2019-04-21T13:24:42.250Z,9.57
2019-04-21T13:27:12.779Z,9.98
2019-04-21T13:29:42.128Z,9.16
2019-04-21T13:32:12.613Z,8.94
2019-04-21T13:34:42.204Z,7.79
2019-04-21T13:37:11.917Z,8.74
2019-04-21T13:40:18.225Z,9.63
2019-04-21T13:42:36.600Z,10.14
2019-04-21T13:45:02.163Z,8.82
2019-04-21T13:47:30.487Z,9.04
2019-04-21T13:50:01.523Z,11.66
2019-04-21T13:52:33.128Z,10.30
2019-04-21T13:55:03.384Z,8.89
2019-04-21T13:57:32.770Z,7.75
2019-04-21T14:00:03.500Z,7.57
2019-04-21T14:02:34.519Z,9.37
2019-04-21T14:05:11.484Z,9.83
2019-04-21T14:07:39.035Z,9.67
2019-04-21T14:10:11.026Z,9.19
2019-04-21T14:12:40.648Z,9.48
2019-04-21T14:15:12.526Z,8.69
2019-04-21T14:17:42.568Z,9.25
2019-04-21T14:20:13.231Z,8.79
2019-04-21T14:22:43.948Z,7.83
2019-04-21T14:25:15.331Z,7.60
2019-04-21T14:27:47.346Z,8.22
2019-04-21T14:30:18.682Z,8.66
2019-04-21T14:32:48.055Z,9.54
2019-04-21T14:35:18.828Z,9.02
2019-04-21T14:37:48.780Z,8.79
2019-04-21T14:40:23.675Z,7.99
2019-04-21T14:42:49.955Z,8.02
2019-04-21T14:45:20.988Z,7.89
2019-04-21T14:47:54.761Z,8.07
2019-04-21T14:50:44.324Z,8.17
2019-04-21T14:53:18.081Z,8.82
2019-04-21T14:55:49.032Z,8.68
2019-04-21T14:58:19.168Z,8.65
2019-04-21T15:00:52.976Z,8.21
2019-04-21T15:03:23.664Z,8.42
2019-04-21T15:05:53.953Z,8.64
2019-04-21T15:08:24.840Z,9.00
2019-04-21T15:10:54.961Z,9.86
2019-04-21T15:13:25.848Z,10.38
2019-04-21T15:15:56.262Z,10.97
2019-04-21T15:18:26.877Z,12.04
2019-04-21T15:20:57.362Z,10.45
2019-04-21T15:23:28.288Z,12.11
2019-04-21T15:25:57.818Z,11.01
2019-04-21T15:28:31.596Z,11.60
2019-04-21T15:30:58.631Z,12.17
2019-04-21T15:33:28.717Z,12.24
2019-04-21T15:35:58.062Z,11.74
2019-04-21T15:38:27.718Z,11.65
2019-04-21T15:41:01.247Z,12.24
2019-04-21T15:43:28.657Z,14.53
2019-04-21T15:45:58.056Z,15.32
2019-04-21T15:48:28.788Z,15.38
2019-04-21T15:50:59.117Z,13.65
2019-04-21T15:53:31.952Z,15.30
2019-04-21T15:56:03.003Z,17.29
2019-04-21T15:58:40.930Z,15.26
2019-04-21T16:01:20.892Z,16.24
2019-04-21T16:03:50.251Z,17.56
2019-04-21T16:06:19.570Z,16.52
2019-04-21T16:08:52.533Z,16.13
2019-04-21T16:11:19.993Z,15.39
2019-04-21T16:13:49.830Z,16.39
2019-04-21T16:16:20.193Z,16.76
2019-04-21T16:18:50.032Z,16.81
2019-04-21T16:21:19.821Z,17.17
2019-04-21T16:23:50.642Z,16.74
2019-04-21T16:26:20.386Z,16.75
2019-04-21T16:28:51.157Z,17.15
2019-04-21T16:31:20.499Z,16.98
2019-04-21T16:33:51.205Z,16.71
2019-04-21T16:36:20.583Z,16.80
2019-04-21T16:38:51.374Z,17.27
2019-04-21T16:41:20.754Z,17.03
2019-04-21T16:43:51.359Z,17.54
2019-04-21T16:46:21.143Z,17.68
2019-04-21T16:48:51.673Z,17.45
2019-04-21T16:51:22.202Z,18.96
2019-04-21T16:53:53.412Z,18.96
2019-04-21T16:56:24.785Z,17.94
2019-04-21T16:58:56.722Z,18.02
2019-04-21T17:01:29.739Z,18.33
2019-04-21T17:04:00.204Z,18.95
2019-04-21T17:06:31.069Z,19.19
2019-04-21T17:09:00.960Z,19.28
2019-04-21T17:11:35.321Z,19.75
2019-04-21T17:14:03.601Z,19.36
2019-04-21T17:17:15.646Z,19.52
2019-04-21T17:19:13.502Z,19.87
2019-04-21T17:21:35.056Z,20.41
2019-04-21T17:24:04.621Z,20.85
2019-04-21T17:26:39.046Z,21.05
2019-04-21T17:29:06.855Z,20.88
2019-04-21T17:31:37.162Z,21.35
2019-04-21T17:34:12.383Z,21.85
2019-04-21T17:36:39.144Z,21.68
2019-04-21T17:39:09.235Z,21.74
2019-04-21T17:41:54.123Z,22.02
2019-04-21T17:44:10.652Z,22.37
2019-04-21T17:46:46.562Z,22.75
2019-04-21T17:49:11.012Z,22.86
2019-04-21T17:51:54.616Z,23.52
2019-04-21T17:54:33.263Z,24.04
2019-04-21T17:57:16.317Z,24.89
2019-04-21T17:59:56.591Z,24.55
2019-04-21T18:02:23.228Z,25.23
2019-04-21T18:04:49.661Z,24.93
2019-04-21T18:07:27.361Z,25.53
2019-04-21T18:10:00.160Z,26.46
2019-04-21T18:12:29.859Z,27.35
2019-04-21T18:14:54.139Z,27.02
2019-04-21T18:17:14.624Z,26.15
2019-04-21T18:19:47.419Z,25.94
2019-04-21T18:22:38.543Z,25.22
2019-04-21T18:25:12.601Z,25.13
2019-04-21T18:27:38.793Z,25.63
2019-04-21T18:30:28.390Z,25.13
2019-04-21T18:32:58.673Z,25.26
2019-04-21T18:35:36.006Z,26.79
2019-04-21T18:38:20.106Z,29.98
2019-04-21T18:40:46.999Z,29.39
2019-04-21T18:43:53.202Z,29.86
2019-04-21T18:46:17.615Z,31.69
2019-04-21T18:48:36.368Z,32.34
2019-04-21T18:51:04.793Z,31.91
2019-04-21T18:53:44.834Z,31.29
2019-04-21T18:56:05.863Z,32.11
2019-04-21T18:58:32.694Z,33.27
2019-04-21T19:01:07.531Z,33.31
2019-04-21T19:03:39.898Z,33.30
2019-04-21T19:06:11.691Z,33.86
2019-04-21T19:09:01.109Z,32.82
2019-04-21T19:11:23.736Z,33.62
2019-04-21T19:14:17.391Z,33.73
2019-04-21T19:16:33.215Z,32.42
2019-04-21T19:19:31.684Z,33.28
2019-04-21T19:21:24.610Z,32.53
2019-04-21T19:24:10.670Z,33.55
2019-04-21T19:26:37.716Z,33.34
2019-04-21T19:29:12.517Z,33.14
2019-04-21T19:34:01.095Z,33.00
2019-04-21T19:36:21.535Z,32.06
2019-04-21T19:38:59.642Z,32.54
2019-04-21T19:41:34.338Z,32.74
2019-04-21T19:44:14.514Z,33.56
2019-04-21T19:46:40.953Z,32.88
2019-04-21T19:49:24.153Z,32.75
2019-04-21T19:51:42.861Z,34.20
2019-04-21T19:54:06.348Z,33.86
2019-04-21T19:56:30.268Z,34.27
2019-04-21T19:59:01.175Z,35.45
2019-04-21T20:01:31.800Z,34.95
2019-04-21T20:04:02.800Z,33.91
2019-04-21T20:06:45.566Z,34.39
2019-04-21T20:09:24.852Z,34.88
2019-04-21T20:11:51.048Z,35.39
2019-04-21T20:16:53.147Z,36.16
2019-04-21T20:19:12.011Z,35.06
2019-04-21T20:21:40.939Z,35.67
2019-04-21T20:24:14.493Z,35.50
2019-04-21T20:26:46.012Z,36.65
2019-04-21T20:29:27.682Z,36.70
2019-04-21T20:31:55.075Z,36.66
2019-04-21T20:34:33.797Z,37.04
2019-04-21T20:37:02.160Z,35.97
2019-04-21T20:39:21.259Z,36.94
2019-04-21T20:42:01.787Z,36.79
2019-04-21T20:44:38.747Z,36.74
2019-04-21T20:47:06.572Z,36.24
2019-04-21T20:49:33.606Z,35.63
2019-04-21T20:52:10.755Z,35.67
2019-04-21T20:54:41.033Z,34.97
2019-04-21T20:57:11.312Z,33.64
2019-04-21T20:59:37.569Z,34.29
2019-04-21T21:02:10.138Z,34.58
2019-04-21T21:04:34.960Z,33.49
2019-04-21T21:07:28.220Z,34.29
2019-04-21T21:09:50.126Z,34.11
2019-04-21T21:14:46.944Z,34.76
2019-04-21T21:17:34.057Z,35.40
2019-04-21T21:19:55.764Z,36.02
2019-04-21T21:22:14.266Z,35.29
2019-04-21T21:24:53.576Z,36.13
2019-04-21T21:27:19.695Z,35.96
2019-04-21T21:29:56.672Z,37.04
2019-04-21T21:32:27.348Z,37.61
2019-04-21T21:34:57.836Z,38.57
2019-04-21T21:37:38.089Z,38.93
2019-04-21T21:40:02.839Z,39.13
2019-04-21T21:42:24.140Z,39.75
2019-04-21T21:44:50.489Z,39.29
2019-04-21T21:47:32.085Z,39.17
2019-04-21T21:50:01.209Z,39.66
2019-04-21T21:52:32.761Z,40.51
2019-04-21T21:54:49.808Z,40.42
2019-04-21T21:57:20.390Z,40.70
2019-04-21T21:59:54.286Z,40.87
2019-04-21T22:02:32.910Z,40.22
2019-04-21T22:05:01.436Z,41.22
2019-04-21T22:07:28.058Z,41.33
2019-04-21T22:09:54.693Z,42.78
2019-04-21T22:12:25.703Z,42.42
2019-04-21T22:14:55.674Z,42.64
2019-04-21T22:17:41.910Z,43.34
2019-04-21T22:20:14.230Z,43.58
2019-04-21T22:22:38.849Z,43.47
2019-04-21T22:25:09.477Z,43.58
2019-04-21T22:27:30.719Z,44.22
2019-04-21T22:30:03.864Z,44.45
2019-04-21T22:32:34.609Z,44.23
2019-04-21T22:35:08.800Z,43.58
2019-04-21T22:37:43.709Z,44.28
2019-04-21T22:40:19.277Z,44.95
2019-04-21T22:42:50.089Z,45.14
2019-04-21T22:45:11.290Z,44.06
2019-04-21T22:47:42.665Z,44.28
2019-04-21T22:50:17.596Z,44.35
2019-04-21T22:52:50.551Z,44.99
2019-04-21T22:55:22.629Z,46.19
2019-04-21T22:57:51.840Z,45.28
2019-04-21T23:00:22.343Z,45.73
2019-04-21T23:03:01.326Z,45.69
2019-04-21T23:05:32.909Z,46.52
2019-04-21T23:08:01.395Z,46.37
2019-04-21T23:10:27.409Z,46.20
2019-04-21T23:12:59.621Z,45.81
2019-04-21T23:15:37.508Z,45.62
2019-04-21T23:18:20.407Z,45.85
2019-04-21T23:20:47.779Z,47.45
2019-04-21T23:23:23.577Z,48.60
2019-04-21T23:25:47.176Z,48.16
2019-04-21T23:28:17.725Z,47.66
2019-04-21T23:31:00.631Z,47.38
2019-04-21T23:33:12.050Z,48.03
2019-04-21T23:35:43.465Z,48.28
2019-04-21T23:38:10.998Z,48.87
2019-04-21T23:40:48.811Z,49.03
2019-04-21T23:43:17.249Z,49.18
2019-04-21T23:45:45.331Z,49.48
2019-04-21T23:48:30.119Z,51.03
2019-04-21T23:50:56.105Z,49.70
2019-04-21T23:53:17.381Z,49.56
2019-04-21T23:55:47.396Z,50.46
2019-04-21T23:58:22.222Z,49.99
